sensor_id;sensor_type;location;lat;lon;timestamp;temperature;humidity
2042;DHT22;1026;51.460;7.252;2022-11-15T00:00:44;8.60;92.10
2042;DHT22;1026;51.460;7.252;2022-11-15T00:03:10;8.70;92.10
2042;DHT22;1026;51.460;7.252;2022-11-15T00:05:38;8.60;92.20
2042;DHT22;1026;51.460;7.252;2022-11-15T00:08:03;8.70;92.20
2042;DHT22;1026;51.460;7.252;2022-11-15T00:10:29;8.70;92.20
2042;DHT22;1026;51.460;7.252;2022-11-15T00:12:55;8.60;92.10
2042;DHT22;1026;51.460;7.252;2022-11-15T00:15:20;8.70;92.20
2042;DHT22;1026;51.460;7.252;2022-11-15T00:17:49;8.80;92.30
2042;DHT22;1026;51.460;7.252;2022-11-15T00:20:15;8.70;92.20
2042;DHT22;1026;51.460;7.252;2022-11-15T00:22:40;8.70;92.20
2042;DHT22;1026;51.460;7.252;2022-11-15T00:25:06;8.70;92.20
2042;DHT22;1026;51.460;7.252;2022-11-15T00:27:32;8.70;92.20
2042;DHT22;1026;51.460;7.252;2022-11-15T00:29:58;8.80;92.20
2042;DHT22;1026;51.460;7.252;2022-11-15T00:32:23;8.70;92.20
2042;DHT22;1026;51.460;7.252;2022-11-15T00:34:49;8.80;92.30
2042;DHT22;1026;51.460;7.252;2022-11-15T00:37:14;8.80;92.30
2042;DHT22;1026;51.460;7.252;2022-11-15T00:39:40;8.80;92.20
2042;DHT22;1026;51.460;7.252;2022-11-15T00:42:06;8.80;92.30
2042;DHT22;1026;51.460;7.252;2022-11-15T00:44:32;8.80;92.30
2042;DHT22;1026;51.460;7.252;2022-11-15T00:46:58;8.80;92.30
2042;DHT22;1026;51.460;7.252;2022-11-15T00:49:23;8.80;92.30
2042;DHT22;1026;51.460;7.252;2022-11-15T00:51:49;8.80;92.30
2042;DHT22;1026;51.460;7.252;2022-11-15T00:54:15;8.80;92.30
2042;DHT22;1026;51.460;7.252;2022-11-15T00:56:40;8.80;92.30
2042;DHT22;1026;51.460;7.252;2022-11-15T00:59:06;8.90;92.40
2042;DHT22;1026;51.460;7.252;2022-11-15T01:01:32;8.80;92.30
2042;DHT22;1026;51.460;7.252;2022-11-15T01:03:57;8.80;92.30
2042;DHT22;1026;51.460;7.252;2022-11-15T01:06:23;8.80;92.30
2042;DHT22;1026;51.460;7.252;2022-11-15T01:08:49;8.80;92.30
2042;DHT22;1026;51.460;7.252;2022-11-15T01:11:14;8.90;92.30
2042;DHT22;1026;51.460;7.252;2022-11-15T01:13:40;8.90;92.40
2042;DHT22;1026;51.460;7.252;2022-11-15T01:16:10;8.90;92.40
2042;DHT22;1026;51.460;7.252;2022-11-15T01:18:37;8.80;92.40
2042;DHT22;1026;51.460;7.252;2022-11-15T01:21:07;8.90;92.40
2042;DHT22;1026;51.460;7.252;2022-11-15T01:23:33;8.80;92.40
2042;DHT22;1026;51.460;7.252;2022-11-15T01:26:01;8.90;92.40
2042;DHT22;1026;51.460;7.252;2022-11-15T01:28:31;8.90;92.50
2042;DHT22;1026;51.460;7.252;2022-11-15T01:30:59;8.90;92.50
2042;DHT22;1026;51.460;7.252;2022-11-15T01:33:25;9.00;92.50
2042;DHT22;1026;51.460;7.252;2022-11-15T01:35:50;9.00;92.50
2042;DHT22;1026;51.460;7.252;2022-11-15T01:38:16;8.90;92.40
2042;DHT22;1026;51.460;7.252;2022-11-15T01:40:42;8.90;92.50
2042;DHT22;1026;51.460;7.252;2022-11-15T01:43:28;9.00;92.50
2042;DHT22;1026;51.460;7.252;2022-11-15T01:46:04;9.00;92.50
2042;DHT22;1026;51.460;7.252;2022-11-15T01:48:33;9.00;92.50
2042;DHT22;1026;51.460;7.252;2022-11-15T01:51:04;9.00;92.50
2042;DHT22;1026;51.460;7.252;2022-11-15T01:53:33;9.00;92.50
2042;DHT22;1026;51.460;7.252;2022-11-15T01:56:02;9.00;92.60
2042;DHT22;1026;51.460;7.252;2022-11-15T01:58:29;9.00;92.50
2042;DHT22;1026;51.460;7.252;2022-11-15T02:00:55;9.00;92.50
2042;DHT22;1026;51.460;7.252;2022-11-15T02:03:22;9.00;92.50
2042;DHT22;1026;51.460;7.252;2022-11-15T02:05:51;9.10;92.60
2042;DHT22;1026;51.460;7.252;2022-11-15T02:08:22;9.10;92.60
2042;DHT22;1026;51.460;7.252;2022-11-15T02:10:48;9.10;92.60
2042;DHT22;1026;51.460;7.252;2022-11-15T02:13:15;9.10;92.60
2042;DHT22;1026;51.460;7.252;2022-11-15T02:18:38;9.00;92.60
2042;DHT22;1026;51.460;7.252;2022-11-15T02:22:24;9.00;92.60
2042;DHT22;1026;51.460;7.252;2022-11-15T02:24:42;9.00;92.60
2042;DHT22;1026;51.460;7.252;2022-11-15T02:30:15;9.10;92.60
2042;DHT22;1026;51.460;7.252;2022-11-15T02:32:50;9.20;92.70
2042;DHT22;1026;51.460;7.252;2022-11-15T02:35:37;9.20;92.70
2042;DHT22;1026;51.460;7.252;2022-11-15T02:38:17;9.20;92.70
2042;DHT22;1026;51.460;7.252;2022-11-15T02:41:15;9.20;92.70
2042;DHT22;1026;51.460;7.252;2022-11-15T02:44:04;9.20;93.00
2042;DHT22;1026;51.460;7.252;2022-11-15T02:46:52;9.20;92.90
2042;DHT22;1026;51.460;7.252;2022-11-15T02:49:36;9.20;92.70
2042;DHT22;1026;51.460;7.252;2022-11-15T02:52:03;9.10;92.70
2042;DHT22;1026;51.460;7.252;2022-11-15T02:54:31;9.10;92.60
2042;DHT22;1026;51.460;7.252;2022-11-15T02:57:03;9.20;92.70
2042;DHT22;1026;51.460;7.252;2022-11-15T03:07:40;9.20;92.70
2042;DHT22;1026;51.460;7.252;2022-11-15T03:13:33;9.30;92.80
2042;DHT22;1026;51.460;7.252;2022-11-15T03:16:03;9.30;92.80
2042;DHT22;1026;51.460;7.252;2022-11-15T03:18:34;9.30;92.70
2042;DHT22;1026;51.460;7.252;2022-11-15T03:21:04;9.30;92.70
2042;DHT22;1026;51.460;7.252;2022-11-15T03:23:32;9.30;92.80
2042;DHT22;1026;51.460;7.252;2022-11-15T03:25:59;9.30;92.80
2042;DHT22;1026;51.460;7.252;2022-11-15T03:28:38;9.30;92.70
2042;DHT22;1026;51.460;7.252;2022-11-15T03:31:06;9.30;92.70
2042;DHT22;1026;51.460;7.252;2022-11-15T03:33:54;9.20;92.90
2042;DHT22;1026;51.460;7.252;2022-11-15T03:36:22;9.40;92.80
2042;DHT22;1026;51.460;7.252;2022-11-15T03:38:48;9.40;92.80
2042;DHT22;1026;51.460;7.252;2022-11-15T03:41:22;9.40;92.80
2042;DHT22;1026;51.460;7.252;2022-11-15T03:44:01;9.30;92.80
2042;DHT22;1026;51.460;7.252;2022-11-15T03:46:37;9.30;92.80
2042;DHT22;1026;51.460;7.252;2022-11-15T03:49:13;9.40;92.80
2042;DHT22;1026;51.460;7.252;2022-11-15T03:51:41;9.40;92.80
2042;DHT22;1026;51.460;7.252;2022-11-15T03:54:07;9.40;92.90
2042;DHT22;1026;51.460;7.252;2022-11-15T03:56:32;9.40;92.70
2042;DHT22;1026;51.460;7.252;2022-11-15T03:58:58;9.30;92.70
2042;DHT22;1026;51.460;7.252;2022-11-15T04:01:24;9.40;92.70
2042;DHT22;1026;51.460;7.252;2022-11-15T04:03:49;9.30;92.70
2042;DHT22;1026;51.460;7.252;2022-11-15T04:06:15;9.50;92.80
2042;DHT22;1026;51.460;7.252;2022-11-15T04:08:41;9.40;92.80
2042;DHT22;1026;51.460;7.252;2022-11-15T04:11:07;9.40;92.80
2042;DHT22;1026;51.460;7.252;2022-11-15T04:13:32;9.40;92.80
2042;DHT22;1026;51.460;7.252;2022-11-15T04:15:58;9.40;92.80
2042;DHT22;1026;51.460;7.252;2022-11-15T04:18:24;9.40;92.80
2042;DHT22;1026;51.460;7.252;2022-11-15T04:20:51;9.50;92.80
2042;DHT22;1026;51.460;7.252;2022-11-15T04:23:32;9.50;92.80
2042;DHT22;1026;51.460;7.252;2022-11-15T04:26:16;9.50;92.90
2042;DHT22;1026;51.460;7.252;2022-11-15T04:28:43;9.40;92.80
2042;DHT22;1026;51.460;7.252;2022-11-15T04:31:27;9.40;92.70
2042;DHT22;1026;51.460;7.252;2022-11-15T04:33:53;9.40;92.80
2042;DHT22;1026;51.460;7.252;2022-11-15T04:36:19;9.50;92.90
2042;DHT22;1026;51.460;7.252;2022-11-15T04:39:00;9.50;92.80
2042;DHT22;1026;51.460;7.252;2022-11-15T04:41:26;9.50;92.80
2042;DHT22;1026;51.460;7.252;2022-11-15T04:43:52;9.50;93.00
2042;DHT22;1026;51.460;7.252;2022-11-15T04:46:18;9.50;92.90
2042;DHT22;1026;51.460;7.252;2022-11-15T04:48:43;9.50;92.90
2042;DHT22;1026;51.460;7.252;2022-11-15T04:51:09;9.60;92.90
2042;DHT22;1026;51.460;7.252;2022-11-15T04:53:35;9.40;92.90
2042;DHT22;1026;51.460;7.252;2022-11-15T04:56:00;9.60;92.90
2042;DHT22;1026;51.460;7.252;2022-11-15T04:58:26;9.60;92.90
2042;DHT22;1026;51.460;7.252;2022-11-15T05:00:51;9.50;92.90
2042;DHT22;1026;51.460;7.252;2022-11-15T05:03:17;9.60;92.90
2042;DHT22;1026;51.460;7.252;2022-11-15T05:05:58;9.60;92.90
2042;DHT22;1026;51.460;7.252;2022-11-15T05:08:25;9.50;93.00
2042;DHT22;1026;51.460;7.252;2022-11-15T05:10:50;9.60;93.00
2042;DHT22;1026;51.460;7.252;2022-11-15T05:13:17;9.60;92.90
2042;DHT22;1026;51.460;7.252;2022-11-15T05:15:42;9.60;93.00
2042;DHT22;1026;51.460;7.252;2022-11-15T05:18:08;9.50;92.80
2042;DHT22;1026;51.460;7.252;2022-11-15T05:20:34;9.60;93.00
2042;DHT22;1026;51.460;7.252;2022-11-15T05:23:00;9.60;92.90
2042;DHT22;1026;51.460;7.252;2022-11-15T05:25:26;9.50;93.00
2042;DHT22;1026;51.460;7.252;2022-11-15T05:27:51;9.60;93.00
2042;DHT22;1026;51.460;7.252;2022-11-15T05:30:17;9.60;93.00
2042;DHT22;1026;51.460;7.252;2022-11-15T05:32:43;9.70;93.00
2042;DHT22;1026;51.460;7.252;2022-11-15T05:35:13;9.70;93.00
2042;DHT22;1026;51.460;7.252;2022-11-15T05:37:41;9.60;92.90
2042;DHT22;1026;51.460;7.252;2022-11-15T05:40:07;9.70;93.00
2042;DHT22;1026;51.460;7.252;2022-11-15T05:42:33;9.70;93.00
2042;DHT22;1026;51.460;7.252;2022-11-15T05:45:00;9.70;93.10
2042;DHT22;1026;51.460;7.252;2022-11-15T05:47:29;9.60;93.00
2042;DHT22;1026;51.460;7.252;2022-11-15T05:50:02;9.70;93.00
2042;DHT22;1026;51.460;7.252;2022-11-15T05:52:38;9.70;93.30
2042;DHT22;1026;51.460;7.252;2022-11-15T05:55:05;9.70;93.30
2042;DHT22;1026;51.460;7.252;2022-11-15T05:57:31;9.70;93.00
2042;DHT22;1026;51.460;7.252;2022-11-15T05:59:57;9.70;93.10
2042;DHT22;1026;51.460;7.252;2022-11-15T06:02:23;9.70;93.00
2042;DHT22;1026;51.460;7.252;2022-11-15T06:04:49;9.70;93.00
2042;DHT22;1026;51.460;7.252;2022-11-15T06:07:14;9.70;93.10
2042;DHT22;1026;51.460;7.252;2022-11-15T06:09:40;9.80;93.10
2042;DHT22;1026;51.460;7.252;2022-11-15T06:12:06;9.70;92.90
2042;DHT22;1026;51.460;7.252;2022-11-15T06:14:32;9.70;92.90
2042;DHT22;1026;51.460;7.252;2022-11-15T06:16:57;9.70;92.90
2042;DHT22;1026;51.460;7.252;2022-11-15T06:19:23;9.80;93.00
2042;DHT22;1026;51.460;7.252;2022-11-15T06:21:49;9.80;92.90
2042;DHT22;1026;51.460;7.252;2022-11-15T06:24:14;9.80;93.00
2042;DHT22;1026;51.460;7.252;2022-11-15T06:26:40;9.80;93.10
2042;DHT22;1026;51.460;7.252;2022-11-15T06:29:06;9.90;93.10
2042;DHT22;1026;51.460;7.252;2022-11-15T06:31:32;9.80;93.00
2042;DHT22;1026;51.460;7.252;2022-11-15T06:33:58;9.80;93.00
2042;DHT22;1026;51.460;7.252;2022-11-15T06:36:24;9.90;93.20
2042;DHT22;1026;51.460;7.252;2022-11-15T06:39:07;9.90;92.90
2042;DHT22;1026;51.460;7.252;2022-11-15T06:41:34;9.80;92.90
2042;DHT22;1026;51.460;7.252;2022-11-15T06:44:01;9.80;93.10
2042;DHT22;1026;51.460;7.252;2022-11-15T06:46:26;9.90;93.20
2042;DHT22;1026;51.460;7.252;2022-11-15T06:48:53;9.90;93.10
2042;DHT22;1026;51.460;7.252;2022-11-15T06:51:19;9.90;93.10
2042;DHT22;1026;51.460;7.252;2022-11-15T06:53:45;9.90;93.10
2042;DHT22;1026;51.460;7.252;2022-11-15T06:56:11;9.90;93.40
2042;DHT22;1026;51.460;7.252;2022-11-15T06:58:37;9.90;93.40
2042;DHT22;1026;51.460;7.252;2022-11-15T07:01:06;9.90;93.20
2042;DHT22;1026;51.460;7.252;2022-11-15T07:03:35;9.90;93.10
2042;DHT22;1026;51.460;7.252;2022-11-15T07:06:01;9.90;93.10
2042;DHT22;1026;51.460;7.252;2022-11-15T07:08:28;10.00;92.80
2042;DHT22;1026;51.460;7.252;2022-11-15T07:10:57;9.90;93.10
2042;DHT22;1026;51.460;7.252;2022-11-15T07:13:41;9.90;93.10
2042;DHT22;1026;51.460;7.252;2022-11-15T07:16:09;9.90;93.00
2042;DHT22;1026;51.460;7.252;2022-11-15T07:18:38;10.00;92.70
2042;DHT22;1026;51.460;7.252;2022-11-15T07:21:05;9.90;93.00
2042;DHT22;1026;51.460;7.252;2022-11-15T07:23:32;10.00;92.60
2042;DHT22;1026;51.460;7.252;2022-11-15T07:26:00;9.90;93.10
2042;DHT22;1026;51.460;7.252;2022-11-15T07:28:29;9.90;93.10
2042;DHT22;1026;51.460;7.252;2022-11-15T07:30:55;9.90;93.10
2042;DHT22;1026;51.460;7.252;2022-11-15T07:33:21;9.90;93.10
2042;DHT22;1026;51.460;7.252;2022-11-15T07:35:47;10.00;92.80
2042;DHT22;1026;51.460;7.252;2022-11-15T07:38:13;9.90;93.30
2042;DHT22;1026;51.460;7.252;2022-11-15T07:40:40;10.00;92.80
2042;DHT22;1026;51.460;7.252;2022-11-15T07:43:07;10.00;92.70
2042;DHT22;1026;51.460;7.252;2022-11-15T07:45:33;9.90;93.20
2042;DHT22;1026;51.460;7.252;2022-11-15T07:48:12;10.00;92.80
2042;DHT22;1026;51.460;7.252;2022-11-15T07:50:41;9.90;93.30
2042;DHT22;1026;51.460;7.252;2022-11-15T07:53:08;9.90;93.30
2042;DHT22;1026;51.460;7.252;2022-11-15T07:55:34;9.90;93.30
2042;DHT22;1026;51.460;7.252;2022-11-15T07:58:01;9.90;93.40
2042;DHT22;1026;51.460;7.252;2022-11-15T08:00:28;9.90;93.30
2042;DHT22;1026;51.460;7.252;2022-11-15T08:03:02;10.00;92.80
2042;DHT22;1026;51.460;7.252;2022-11-15T08:05:27;10.00;92.80
2042;DHT22;1026;51.460;7.252;2022-11-15T08:07:55;10.00;92.90
2042;DHT22;1026;51.460;7.252;2022-11-15T08:10:21;10.00;93.00
2042;DHT22;1026;51.460;7.252;2022-11-15T08:12:47;10.00;93.10
2042;DHT22;1026;51.460;7.252;2022-11-15T08:15:12;10.00;93.30
2042;DHT22;1026;51.460;7.252;2022-11-15T08:17:38;10.00;92.90
2042;DHT22;1026;51.460;7.252;2022-11-15T08:20:04;10.00;92.80
2042;DHT22;1026;51.460;7.252;2022-11-15T08:22:30;10.00;92.90
2042;DHT22;1026;51.460;7.252;2022-11-15T08:24:56;10.00;92.80
2042;DHT22;1026;51.460;7.252;2022-11-15T08:27:21;10.00;92.70
2042;DHT22;1026;51.460;7.252;2022-11-15T08:29:48;10.00;92.80
2042;DHT22;1026;51.460;7.252;2022-11-15T08:32:23;10.10;92.80
2042;DHT22;1026;51.460;7.252;2022-11-15T08:34:49;10.00;92.70
2042;DHT22;1026;51.460;7.252;2022-11-15T08:37:15;10.00;92.80
2042;DHT22;1026;51.460;7.252;2022-11-15T08:39:40;10.10;92.80
2042;DHT22;1026;51.460;7.252;2022-11-15T08:42:06;10.10;92.70
2042;DHT22;1026;51.460;7.252;2022-11-15T08:44:32;10.00;92.70
2042;DHT22;1026;51.460;7.252;2022-11-15T08:46:57;10.00;92.70
2042;DHT22;1026;51.460;7.252;2022-11-15T08:49:23;10.10;92.80
2042;DHT22;1026;51.460;7.252;2022-11-15T08:51:49;10.10;92.90
2042;DHT22;1026;51.460;7.252;2022-11-15T08:54:15;10.00;92.80
2042;DHT22;1026;51.460;7.252;2022-11-15T08:56:40;9.90;93.30
2042;DHT22;1026;51.460;7.252;2022-11-15T08:59:10;10.10;92.80
2042;DHT22;1026;51.460;7.252;2022-11-15T09:01:37;10.10;92.80
2042;DHT22;1026;51.460;7.252;2022-11-15T09:04:02;10.10;92.70
2042;DHT22;1026;51.460;7.252;2022-11-15T09:06:29;10.00;92.70
2042;DHT22;1026;51.460;7.252;2022-11-15T09:08:56;10.00;92.70
2042;DHT22;1026;51.460;7.252;2022-11-15T09:11:22;10.10;92.80
2042;DHT22;1026;51.460;7.252;2022-11-15T09:13:49;10.10;92.90
2042;DHT22;1026;51.460;7.252;2022-11-15T09:16:15;10.00;92.70
2042;DHT22;1026;51.460;7.252;2022-11-15T09:18:41;10.10;92.80
2042;DHT22;1026;51.460;7.252;2022-11-15T09:21:07;10.10;92.80
2042;DHT22;1026;51.460;7.252;2022-11-15T09:23:33;10.20;92.80
2042;DHT22;1026;51.460;7.252;2022-11-15T09:26:02;10.10;92.80
2042;DHT22;1026;51.460;7.252;2022-11-15T09:28:40;10.10;92.80
2042;DHT22;1026;51.460;7.252;2022-11-15T09:31:07;10.10;92.70
2042;DHT22;1026;51.460;7.252;2022-11-15T09:33:33;10.10;92.70
2042;DHT22;1026;51.460;7.252;2022-11-15T09:36:02;10.10;92.80
2042;DHT22;1026;51.460;7.252;2022-11-15T09:38:28;10.10;92.80
2042;DHT22;1026;51.460;7.252;2022-11-15T09:49:19;10.10;92.70
2042;DHT22;1026;51.460;7.252;2022-11-15T09:51:49;10.20;92.80
2042;DHT22;1026;51.460;7.252;2022-11-15T09:54:35;10.10;92.90
2042;DHT22;1026;51.460;7.252;2022-11-15T09:57:24;10.20;92.70
2042;DHT22;1026;51.460;7.252;2022-11-15T10:00:20;10.20;92.80
2042;DHT22;1026;51.460;7.252;2022-11-15T10:06:01;10.20;92.70
2042;DHT22;1026;51.460;7.252;2022-11-15T10:11:05;10.10;92.70
2042;DHT22;1026;51.460;7.252;2022-11-15T10:14:05;10.20;92.70
2042;DHT22;1026;51.460;7.252;2022-11-15T10:22:00;10.10;92.60
2042;DHT22;1026;51.460;7.252;2022-11-15T10:24:34;10.20;92.60
2042;DHT22;1026;51.460;7.252;2022-11-15T10:27:10;10.20;92.60
2042;DHT22;1026;51.460;7.252;2022-11-15T10:29:44;10.30;92.70
2042;DHT22;1026;51.460;7.252;2022-11-15T10:32:11;10.20;92.70
2042;DHT22;1026;51.460;7.252;2022-11-15T10:34:37;10.20;92.60
2042;DHT22;1026;51.460;7.252;2022-11-15T10:37:03;10.30;92.60
2042;DHT22;1026;51.460;7.252;2022-11-15T10:39:32;10.30;92.60
2042;DHT22;1026;51.460;7.252;2022-11-15T10:42:17;10.30;92.60
2042;DHT22;1026;51.460;7.252;2022-11-15T10:44:44;10.30;92.60
2042;DHT22;1026;51.460;7.252;2022-11-15T10:47:29;10.20;92.50
2042;DHT22;1026;51.460;7.252;2022-11-15T10:50:02;10.20;92.50
2042;DHT22;1026;51.460;7.252;2022-11-15T10:52:29;10.20;92.60
2042;DHT22;1026;51.460;7.252;2022-11-15T11:01:34;10.30;92.50
2042;DHT22;1026;51.460;7.252;2022-11-15T11:11:49;10.30;92.50
2042;DHT22;1026;51.460;7.252;2022-11-15T11:14:23;10.30;92.50
2042;DHT22;1026;51.460;7.252;2022-11-15T11:17:11;10.30;92.50
2042;DHT22;1026;51.460;7.252;2022-11-15T11:28:22;10.30;92.60
2042;DHT22;1026;51.460;7.252;2022-11-15T11:40:02;10.40;92.50
2042;DHT22;1026;51.460;7.252;2022-11-15T11:42:54;10.30;92.50
2042;DHT22;1026;51.460;7.252;2022-11-15T11:45:49;10.40;92.50
2042;DHT22;1026;51.460;7.252;2022-11-15T11:51:13;10.30;92.40
2042;DHT22;1026;51.460;7.252;2022-11-15T11:53:42;10.40;92.40
2042;DHT22;1026;51.460;7.252;2022-11-15T11:56:19;10.40;92.40
2042;DHT22;1026;51.460;7.252;2022-11-15T11:58:48;10.30;92.40
2042;DHT22;1026;51.460;7.252;2022-11-15T12:01:31;10.40;92.40
2042;DHT22;1026;51.460;7.252;2022-11-15T12:06:31;10.30;92.30
2042;DHT22;1026;51.460;7.252;2022-11-15T12:14:30;10.40;92.30
2042;DHT22;1026;51.460;7.252;2022-11-15T12:16:59;10.30;92.20
2042;DHT22;1026;51.460;7.252;2022-11-15T12:19:40;10.30;92.20
2042;DHT22;1026;51.460;7.252;2022-11-15T12:24:45;10.40;92.20
2042;DHT22;1026;51.460;7.252;2022-11-15T12:30:44;10.40;92.20
2042;DHT22;1026;51.460;7.252;2022-11-15T12:41:21;10.40;92.10
2042;DHT22;1026;51.460;7.252;2022-11-15T12:43:48;10.50;92.10
2042;DHT22;1026;51.460;7.252;2022-11-15T12:54:54;10.50;92.10
2042;DHT22;1026;51.460;7.252;2022-11-15T12:59:56;10.40;92.00
2042;DHT22;1026;51.460;7.252;2022-11-15T13:02:40;10.50;92.10
2042;DHT22;1026;51.460;7.252;2022-11-15T13:11:51;10.50;92.00
2042;DHT22;1026;51.460;7.252;2022-11-15T13:17:03;10.50;92.10
2042;DHT22;1026;51.460;7.252;2022-11-15T13:19:36;10.50;92.10
2042;DHT22;1026;51.460;7.252;2022-11-15T13:22:05;10.50;92.00
2042;DHT22;1026;51.460;7.252;2022-11-15T13:24:49;10.50;92.00
2042;DHT22;1026;51.460;7.252;2022-11-15T13:27:18;10.50;92.00
2042;DHT22;1026;51.460;7.252;2022-11-15T13:29:44;10.50;92.00
2042;DHT22;1026;51.460;7.252;2022-11-15T13:32:13;10.50;92.00
2042;DHT22;1026;51.460;7.252;2022-11-15T13:34:43;10.50;92.00
2042;DHT22;1026;51.460;7.252;2022-11-15T13:37:28;10.50;92.00
2042;DHT22;1026;51.460;7.252;2022-11-15T13:42:44;10.40;91.90
2042;DHT22;1026;51.460;7.252;2022-11-15T13:45:13;10.50;92.00
2042;DHT22;1026;51.460;7.252;2022-11-15T13:47:40;10.50;92.00
2042;DHT22;1026;51.460;7.252;2022-11-15T13:50:05;10.50;92.00
2042;DHT22;1026;51.460;7.252;2022-11-15T13:52:35;10.50;92.00
2042;DHT22;1026;51.460;7.252;2022-11-15T13:55:04;10.50;91.90
2042;DHT22;1026;51.460;7.252;2022-11-15T13:57:44;10.50;91.90
2042;DHT22;1026;51.460;7.252;2022-11-15T14:00:29;10.50;91.90
2042;DHT22;1026;51.460;7.252;2022-11-15T14:02:57;10.50;91.90
2042;DHT22;1026;51.460;7.252;2022-11-15T14:05:29;10.50;91.90
2042;DHT22;1026;51.460;7.252;2022-11-15T14:08:01;10.50;91.90
2042;DHT22;1026;51.460;7.252;2022-11-15T14:10:33;10.60;92.00
2042;DHT22;1026;51.460;7.252;2022-11-15T14:13:00;10.60;92.00
2042;DHT22;1026;51.460;7.252;2022-11-15T14:15:33;10.60;91.90
2042;DHT22;1026;51.460;7.252;2022-11-15T14:17:59;10.60;91.90
2042;DHT22;1026;51.460;7.252;2022-11-15T14:22:54;10.60;91.90
2042;DHT22;1026;51.460;7.252;2022-11-15T14:25:24;10.60;91.90
2042;DHT22;1026;51.460;7.252;2022-11-15T14:28:11;10.60;91.90
2042;DHT22;1026;51.460;7.252;2022-11-15T14:30:38;10.50;91.80
2042;DHT22;1026;51.460;7.252;2022-11-15T14:35:43;10.60;91.90
2042;DHT22;1026;51.460;7.252;2022-11-15T14:38:09;10.60;91.90
2042;DHT22;1026;51.460;7.252;2022-11-15T14:40:35;10.60;91.80
2042;DHT22;1026;51.460;7.252;2022-11-15T14:43:00;10.70;91.80
2042;DHT22;1026;51.460;7.252;2022-11-15T14:45:27;10.70;91.90
2042;DHT22;1026;51.460;7.252;2022-11-15T14:47:52;10.70;91.90
2042;DHT22;1026;51.460;7.252;2022-11-15T14:50:20;10.60;91.80
2042;DHT22;1026;51.460;7.252;2022-11-15T14:52:46;10.70;91.80
2042;DHT22;1026;51.460;7.252;2022-11-15T14:58:02;10.70;91.80
2042;DHT22;1026;51.460;7.252;2022-11-15T15:00:30;10.70;91.80
2042;DHT22;1026;51.460;7.252;2022-11-15T15:02:56;10.70;91.80
2042;DHT22;1026;51.460;7.252;2022-11-15T15:05:27;10.70;91.80
2042;DHT22;1026;51.460;7.252;2022-11-15T15:07:54;10.60;91.70
2042;DHT22;1026;51.460;7.252;2022-11-15T15:10:21;10.80;91.80
2042;DHT22;1026;51.460;7.252;2022-11-15T15:12:47;10.80;91.80
2042;DHT22;1026;51.460;7.252;2022-11-15T15:15:16;10.80;91.70
2042;DHT22;1026;51.460;7.252;2022-11-15T15:17:42;10.80;91.70
2042;DHT22;1026;51.460;7.252;2022-11-15T15:20:09;10.80;91.80
2042;DHT22;1026;51.460;7.252;2022-11-15T15:22:36;10.70;91.70
2042;DHT22;1026;51.460;7.252;2022-11-15T15:25:02;10.80;91.80
2042;DHT22;1026;51.460;7.252;2022-11-15T15:27:29;10.80;91.70
2042;DHT22;1026;51.460;7.252;2022-11-15T15:29:54;10.80;91.70
2042;DHT22;1026;51.460;7.252;2022-11-15T15:32:20;10.80;91.70
2042;DHT22;1026;51.460;7.252;2022-11-15T15:34:46;10.80;91.70
2042;DHT22;1026;51.460;7.252;2022-11-15T15:37:23;10.80;91.70
2042;DHT22;1026;51.460;7.252;2022-11-15T15:39:51;10.80;91.60
2042;DHT22;1026;51.460;7.252;2022-11-15T15:42:18;10.90;91.80
2042;DHT22;1026;51.460;7.252;2022-11-15T15:44:45;10.90;91.70
2042;DHT22;1026;51.460;7.252;2022-11-15T15:47:16;10.90;91.70
2042;DHT22;1026;51.460;7.252;2022-11-15T15:49:42;10.90;91.70
2042;DHT22;1026;51.460;7.252;2022-11-15T15:52:08;10.90;91.70
2042;DHT22;1026;51.460;7.252;2022-11-15T15:54:33;10.90;91.70
2042;DHT22;1026;51.460;7.252;2022-11-15T15:56:59;10.90;91.70
2042;DHT22;1026;51.460;7.252;2022-11-15T15:59:25;10.90;91.70
2042;DHT22;1026;51.460;7.252;2022-11-15T16:01:50;10.80;91.60
2042;DHT22;1026;51.460;7.252;2022-11-15T16:04:16;10.90;91.70
2042;DHT22;1026;51.460;7.252;2022-11-15T16:06:42;10.90;91.70
2042;DHT22;1026;51.460;7.252;2022-11-15T16:09:18;10.90;91.70
2042;DHT22;1026;51.460;7.252;2022-11-15T16:12:04;10.90;91.70
2042;DHT22;1026;51.460;7.252;2022-11-15T16:14:31;10.90;91.70
2042;DHT22;1026;51.460;7.252;2022-11-15T16:16:56;10.80;91.70
2042;DHT22;1026;51.460;7.252;2022-11-15T16:19:22;10.90;91.70
2042;DHT22;1026;51.460;7.252;2022-11-15T16:21:48;10.90;91.70
2042;DHT22;1026;51.460;7.252;2022-11-15T16:24:13;11.00;91.80
2042;DHT22;1026;51.460;7.252;2022-11-15T16:26:39;11.00;91.60
2042;DHT22;1026;51.460;7.252;2022-11-15T16:29:05;10.90;91.50
2042;DHT22;1026;51.460;7.252;2022-11-15T16:31:32;11.00;91.60
2042;DHT22;1026;51.460;7.252;2022-11-15T16:33:57;11.00;91.60
2042;DHT22;1026;51.460;7.252;2022-11-15T16:36:25;11.00;91.50
2042;DHT22;1026;51.460;7.252;2022-11-15T16:38:51;11.00;91.60
2042;DHT22;1026;51.460;7.252;2022-11-15T16:41:18;10.90;91.60
2042;DHT22;1026;51.460;7.252;2022-11-15T16:43:45;11.00;91.60
2042;DHT22;1026;51.460;7.252;2022-11-15T16:46:22;11.00;91.70
2042;DHT22;1026;51.460;7.252;2022-11-15T16:48:48;11.00;91.60
2042;DHT22;1026;51.460;7.252;2022-11-15T16:51:15;11.00;91.60
2042;DHT22;1026;51.460;7.252;2022-11-15T16:53:41;11.00;91.60
2042;DHT22;1026;51.460;7.252;2022-11-15T16:58:48;11.00;91.70
2042;DHT22;1026;51.460;7.252;2022-11-15T17:01:18;11.00;91.60
2042;DHT22;1026;51.460;7.252;2022-11-15T17:03:44;11.00;91.70
2042;DHT22;1026;51.460;7.252;2022-11-15T17:06:10;11.00;91.70
2042;DHT22;1026;51.460;7.252;2022-11-15T17:08:37;11.00;91.70
2042;DHT22;1026;51.460;7.252;2022-11-15T17:11:14;11.00;91.70
2042;DHT22;1026;51.460;7.252;2022-11-15T17:13:40;11.00;91.70
2042;DHT22;1026;51.460;7.252;2022-11-15T17:16:08;11.00;91.70
2042;DHT22;1026;51.460;7.252;2022-11-15T17:18:35;11.00;91.70
2042;DHT22;1026;51.460;7.252;2022-11-15T17:23:31;11.00;91.70
2042;DHT22;1026;51.460;7.252;2022-11-15T17:26:00;11.00;91.70
2042;DHT22;1026;51.460;7.252;2022-11-15T17:28:27;11.00;91.70
2042;DHT22;1026;51.460;7.252;2022-11-15T17:30:53;11.00;91.70
2042;DHT22;1026;51.460;7.252;2022-11-15T17:33:18;11.00;91.70
2042;DHT22;1026;51.460;7.252;2022-11-15T17:35:44;11.00;91.70
2042;DHT22;1026;51.460;7.252;2022-11-15T17:38:10;11.00;91.70
2042;DHT22;1026;51.460;7.252;2022-11-15T17:40:35;11.00;91.70
2042;DHT22;1026;51.460;7.252;2022-11-15T17:43:01;11.00;91.70
2042;DHT22;1026;51.460;7.252;2022-11-15T17:45:27;11.00;91.80
2042;DHT22;1026;51.460;7.252;2022-11-15T17:47:52;11.00;91.70
2042;DHT22;1026;51.460;7.252;2022-11-15T17:50:18;11.00;91.70
2042;DHT22;1026;51.460;7.252;2022-11-15T17:52:44;11.10;92.10
2042;DHT22;1026;51.460;7.252;2022-11-15T17:55:09;11.10;91.70
2042;DHT22;1026;51.460;7.252;2022-11-15T17:57:35;11.10;91.70
2042;DHT22;1026;51.460;7.252;2022-11-15T18:00:01;11.10;91.70
2042;DHT22;1026;51.460;7.252;2022-11-15T18:02:26;11.10;91.70
2042;DHT22;1026;51.460;7.252;2022-11-15T18:04:52;11.10;91.70
2042;DHT22;1026;51.460;7.252;2022-11-15T18:07:18;11.10;91.60
2042;DHT22;1026;51.460;7.252;2022-11-15T18:09:43;11.10;91.70
2042;DHT22;1026;51.460;7.252;2022-11-15T18:12:10;11.10;91.70
2042;DHT22;1026;51.460;7.252;2022-11-15T18:14:36;11.10;91.70
2042;DHT22;1026;51.460;7.252;2022-11-15T18:17:02;11.00;91.60
2042;DHT22;1026;51.460;7.252;2022-11-15T18:19:27;11.10;91.70
2042;DHT22;1026;51.460;7.252;2022-11-15T18:21:53;11.20;91.70
2042;DHT22;1026;51.460;7.252;2022-11-15T18:24:25;11.10;91.70
2042;DHT22;1026;51.460;7.252;2022-11-15T18:26:51;11.20;91.70
2042;DHT22;1026;51.460;7.252;2022-11-15T18:29:17;11.10;91.70
2042;DHT22;1026;51.460;7.252;2022-11-15T18:31:42;11.20;91.80